sensor_id;sensor_type;location;lat;lon;timestamp;P1;durP1;ratioP1;P2;durP2;ratioP2
32824;SDS011;51060;42.640;24.356;2023-03-08T00:00:24;41.80;;;25.57;;
32824;SDS011;51060;42.640;24.356;2023-03-08T00:02:50;40.20;;;24.70;;
32824;SDS011;51060;42.640;24.356;2023-03-08T00:05:18;39.53;;;26.00;;
32824;SDS011;51060;42.640;24.356;2023-03-08T00:07:43;45.20;;;28.50;;
32824;SDS011;51060;42.640;24.356;2023-03-08T00:10:09;43.40;;;26.27;;
32824;SDS011;51060;42.640;24.356;2023-03-08T00:12:35;41.17;;;24.73;;
32824;SDS011;51060;42.640;24.356;2023-03-08T00:15:01;35.57;;;23.13;;
32824;SDS011;51060;42.640;24.356;2023-03-08T00:17:26;34.10;;;22.47;;
32824;SDS011;51060;42.640;24.356;2023-03-08T00:19:52;39.17;;;26.30;;
32824;SDS011;51060;42.640;24.356;2023-03-08T00:22:17;41.77;;;27.67;;
32824;SDS011;51060;42.640;24.356;2023-03-08T00:24:43;39.03;;;25.87;;
32824;SDS011;51060;42.640;24.356;2023-03-08T00:27:09;36.87;;;23.70;;
32824;SDS011;51060;42.640;24.356;2023-03-08T00:29:34;34.17;;;22.77;;
32824;SDS011;51060;42.640;24.356;2023-03-08T00:32:00;33.57;;;21.43;;
32824;SDS011;51060;42.640;24.356;2023-03-08T00:34:25;33.20;;;22.80;;
32824;SDS011;51060;42.640;24.356;2023-03-08T00:36:51;25.07;;;17.73;;
32824;SDS011;51060;42.640;24.356;2023-03-08T00:39:16;25.70;;;17.00;;
32824;SDS011;51060;42.640;24.356;2023-03-08T00:41:42;23.10;;;16.23;;
32824;SDS011;51060;42.640;24.356;2023-03-08T00:44:08;37.53;;;20.30;;
32824;SDS011;51060;42.640;24.356;2023-03-08T00:46:33;24.00;;;14.13;;
32824;SDS011;51060;42.640;24.356;2023-03-08T00:48:59;16.40;;;10.77;;
32824;SDS011;51060;42.640;24.356;2023-03-08T00:51:25;14.10;;;11.93;;
32824;SDS011;51060;42.640;24.356;2023-03-08T00:53:51;14.80;;;11.07;;
32824;SDS011;51060;42.640;24.356;2023-03-08T00:56:16;24.03;;;14.17;;
32824;SDS011;51060;42.640;24.356;2023-03-08T00:58:42;16.97;;;11.60;;
32824;SDS011;51060;42.640;24.356;2023-03-08T01:01:08;21.70;;;13.73;;
32824;SDS011;51060;42.640;24.356;2023-03-08T01:03:37;19.07;;;13.53;;
32824;SDS011;51060;42.640;24.356;2023-03-08T01:06:05;21.77;;;15.10;;
32824;SDS011;51060;42.640;24.356;2023-03-08T01:08:32;30.83;;;19.70;;
32824;SDS011;51060;42.640;24.356;2023-03-08T01:10:59;43.47;;;25.87;;
32824;SDS011;51060;42.640;24.356;2023-03-08T01:13:26;49.57;;;30.30;;
32824;SDS011;51060;42.640;24.356;2023-03-08T01:15:53;47.63;;;27.17;;
32824;SDS011;51060;42.640;24.356;2023-03-08T01:18:18;44.53;;;26.70;;
32824;SDS011;51060;42.640;24.356;2023-03-08T01:20:44;35.30;;;22.87;;
32824;SDS011;51060;42.640;24.356;2023-03-08T01:23:09;35.83;;;22.20;;
32824;SDS011;51060;42.640;24.356;2023-03-08T01:25:35;40.30;;;25.40;;
32824;SDS011;51060;42.640;24.356;2023-03-08T01:28:01;50.43;;;32.73;;
32824;SDS011;51060;42.640;24.356;2023-03-08T01:30:26;56.10;;;33.57;;
32824;SDS011;51060;42.640;24.356;2023-03-08T01:32:52;45.77;;;29.23;;
32824;SDS011;51060;42.640;24.356;2023-03-08T01:35:18;47.20;;;29.83;;
32824;SDS011;51060;42.640;24.356;2023-03-08T01:37:43;42.30;;;26.60;;
32824;SDS011;51060;42.640;24.356;2023-03-08T01:40:10;33.03;;;22.37;;
32824;SDS011;51060;42.640;24.356;2023-03-08T01:42:38;35.47;;;23.73;;
32824;SDS011;51060;42.640;24.356;2023-03-08T01:45:05;35.20;;;22.00;;
32824;SDS011;51060;42.640;24.356;2023-03-08T01:47:31;35.40;;;23.53;;
32824;SDS011;51060;42.640;24.356;2023-03-08T01:50:03;41.13;;;31.07;;
32824;SDS011;51060;42.640;24.356;2023-03-08T01:52:35;35.57;;;24.47;;
32824;SDS011;51060;42.640;24.356;2023-03-08T01:55:05;18.30;;;14.10;;
32824;SDS011;51060;42.640;24.356;2023-03-08T01:57:34;20.47;;;13.97;;
32824;SDS011;51060;42.640;24.356;2023-03-08T02:00:09;26.10;;;15.07;;
32824;SDS011;51060;42.640;24.356;2023-03-08T02:02:41;23.73;;;19.10;;
32824;SDS011;51060;42.640;24.356;2023-03-08T02:05:15;22.03;;;16.83;;
32824;SDS011;51060;42.640;24.356;2023-03-08T02:07:41;23.87;;;16.50;;
32824;SDS011;51060;42.640;24.356;2023-03-08T02:10:07;22.03;;;16.57;;
32824;SDS011;51060;42.640;24.356;2023-03-08T02:12:33;19.37;;;15.10;;
32824;SDS011;51060;42.640;24.356;2023-03-08T02:14:59;20.87;;;14.77;;
32824;SDS011;51060;42.640;24.356;2023-03-08T02:17:31;17.00;;;13.33;;
32824;SDS011;51060;42.640;24.356;2023-03-08T02:20:15;18.33;;;13.33;;
32824;SDS011;51060;42.640;24.356;2023-03-08T02:22:44;17.63;;;12.90;;
32824;SDS011;51060;42.640;24.356;2023-03-08T02:25:14;19.77;;;13.80;;
32824;SDS011;51060;42.640;24.356;2023-03-08T02:27:40;21.40;;;16.23;;
32824;SDS011;51060;42.640;24.356;2023-03-08T02:30:06;21.97;;;15.80;;
32824;SDS011;51060;42.640;24.356;2023-03-08T02:32:33;22.07;;;15.93;;
32824;SDS011;51060;42.640;24.356;2023-03-08T02:34:59;27.30;;;18.13;;
32824;SDS011;51060;42.640;24.356;2023-03-08T02:37:24;24.50;;;18.00;;
32824;SDS011;51060;42.640;24.356;2023-03-08T02:39:50;29.63;;;19.73;;
32824;SDS011;51060;42.640;24.356;2023-03-08T02:42:16;28.77;;;18.57;;
32824;SDS011;51060;42.640;24.356;2023-03-08T02:44:41;28.67;;;18.13;;
32824;SDS011;51060;42.640;24.356;2023-03-08T02:47:07;25.03;;;16.17;;
32824;SDS011;51060;42.640;24.356;2023-03-08T02:49:33;30.30;;;19.00;;
32824;SDS011;51060;42.640;24.356;2023-03-08T02:51:58;25.90;;;17.87;;
32824;SDS011;51060;42.640;24.356;2023-03-08T02:54:24;16.73;;;12.73;;
32824;SDS011;51060;42.640;24.356;2023-03-08T02:56:49;16.23;;;12.43;;
32824;SDS011;51060;42.640;24.356;2023-03-08T02:59:15;22.70;;;13.60;;
32824;SDS011;51060;42.640;24.356;2023-03-08T03:01:40;22.07;;;14.87;;
32824;SDS011;51060;42.640;24.356;2023-03-08T03:04:06;41.07;;;28.93;;
32824;SDS011;51060;42.640;24.356;2023-03-08T03:06:31;28.80;;;21.03;;
32824;SDS011;51060;42.640;24.356;2023-03-08T03:08:57;26.23;;;19.10;;
32824;SDS011;51060;42.640;24.356;2023-03-08T03:11:23;26.93;;;18.57;;
32824;SDS011;51060;42.640;24.356;2023-03-08T03:13:55;22.67;;;16.63;;
32824;SDS011;51060;42.640;24.356;2023-03-08T03:16:22;20.17;;;15.70;;
32824;SDS011;51060;42.640;24.356;2023-03-08T03:18:48;25.60;;;20.03;;
32824;SDS011;51060;42.640;24.356;2023-03-08T03:21:13;23.83;;;17.30;;
32824;SDS011;51060;42.640;24.356;2023-03-08T03:23:39;25.43;;;18.67;;
32824;SDS011;51060;42.640;24.356;2023-03-08T03:26:05;26.87;;;20.33;;
32824;SDS011;51060;42.640;24.356;2023-03-08T03:28:35;27.47;;;19.57;;
32824;SDS011;51060;42.640;24.356;2023-03-08T03:31:01;23.53;;;16.43;;
32824;SDS011;51060;42.640;24.356;2023-03-08T03:33:30;21.33;;;15.63;;
32824;SDS011;51060;42.640;24.356;2023-03-08T03:35:56;23.13;;;15.10;;
32824;SDS011;51060;42.640;24.356;2023-03-08T03:38:21;27.47;;;18.10;;
32824;SDS011;51060;42.640;24.356;2023-03-08T03:40:47;24.50;;;17.20;;
32824;SDS011;51060;42.640;24.356;2023-03-08T03:43:12;27.87;;;18.80;;
32824;SDS011;51060;42.640;24.356;2023-03-08T03:45:38;36.53;;;24.50;;
32824;SDS011;51060;42.640;24.356;2023-03-08T03:48:03;29.77;;;20.77;;
32824;SDS011;51060;42.640;24.356;2023-03-08T03:50:29;41.10;;;24.83;;
32824;SDS011;51060;42.640;24.356;2023-03-08T03:52:54;45.50;;;28.47;;
32824;SDS011;51060;42.640;24.356;2023-03-08T03:55:20;61.77;;;35.47;;
32824;SDS011;51060;42.640;24.356;2023-03-08T03:57:45;57.03;;;35.07;;
32824;SDS011;51060;42.640;24.356;2023-03-08T04:00:11;78.07;;;41.23;;
32824;SDS011;51060;42.640;24.356;2023-03-08T04:02:37;71.13;;;40.70;;
32824;SDS011;51060;42.640;24.356;2023-03-08T04:05:03;123.20;;;61.93;;
32824;SDS011;51060;42.640;24.356;2023-03-08T04:07:29;77.00;;;45.60;;
32824;SDS011;51060;42.640;24.356;2023-03-08T04:09:54;65.83;;;40.83;;
32824;SDS011;51060;42.640;24.356;2023-03-08T04:12:20;71.17;;;41.40;;
32824;SDS011;51060;42.640;24.356;2023-03-08T04:14:45;70.60;;;41.87;;
32824;SDS011;51060;42.640;24.356;2023-03-08T04:17:11;70.00;;;40.20;;
32824;SDS011;51060;42.640;24.356;2023-03-08T04:19:36;81.50;;;46.03;;
32824;SDS011;51060;42.640;24.356;2023-03-08T04:22:02;90.47;;;49.83;;
32824;SDS011;51060;42.640;24.356;2023-03-08T04:24:28;96.47;;;53.10;;
32824;SDS011;51060;42.640;24.356;2023-03-08T04:26:54;89.80;;;50.27;;
32824;SDS011;51060;42.640;24.356;2023-03-08T04:29:20;74.87;;;42.80;;
32824;SDS011;51060;42.640;24.356;2023-03-08T04:31:45;68.20;;;40.57;;
32824;SDS011;51060;42.640;24.356;2023-03-08T04:34:11;66.37;;;38.73;;
32824;SDS011;51060;42.640;24.356;2023-03-08T04:36:36;68.10;;;37.10;;
32824;SDS011;51060;42.640;24.356;2023-03-08T04:39:02;61.03;;;36.60;;
32824;SDS011;51060;42.640;24.356;2023-03-08T04:41:27;54.67;;;34.87;;
32824;SDS011;51060;42.640;24.356;2023-03-08T04:43:54;64.03;;;39.53;;
32824;SDS011;51060;42.640;24.356;2023-03-08T04:46:22;76.80;;;46.07;;
32824;SDS011;51060;42.640;24.356;2023-03-08T04:48:49;76.50;;;48.40;;
32824;SDS011;51060;42.640;24.356;2023-03-08T04:51:18;81.60;;;51.10;;
32824;SDS011;51060;42.640;24.356;2023-03-08T04:53:43;82.37;;;49.30;;
32824;SDS011;51060;42.640;24.356;2023-03-08T04:56:09;84.27;;;53.00;;
32824;SDS011;51060;42.640;24.356;2023-03-08T04:58:36;81.40;;;50.10;;
32824;SDS011;51060;42.640;24.356;2023-03-08T05:01:35;76.30;;;48.03;;
32824;SDS011;51060;42.640;24.356;2023-03-08T05:03:56;79.43;;;50.23;;
32824;SDS011;51060;42.640;24.356;2023-03-08T05:06:22;76.43;;;49.10;;
32824;SDS011;51060;42.640;24.356;2023-03-08T05:08:49;83.30;;;51.53;;
32824;SDS011;51060;42.640;24.356;2023-03-08T05:11:19;58.80;;;38.93;;
32824;SDS011;51060;42.640;24.356;2023-03-08T05:13:49;65.80;;;41.83;;
32824;SDS011;51060;42.640;24.356;2023-03-08T05:16:14;62.53;;;42.37;;
32824;SDS011;51060;42.640;24.356;2023-03-08T05:18:42;78.77;;;51.70;;
32824;SDS011;51060;42.640;24.356;2023-03-08T05:21:16;108.93;;;72.10;;
32824;SDS011;51060;42.640;24.356;2023-03-08T05:23:43;119.10;;;78.80;;
32824;SDS011;51060;42.640;24.356;2023-03-08T05:26:10;126.00;;;80.83;;
32824;SDS011;51060;42.640;24.356;2023-03-08T05:28:40;114.30;;;76.50;;
32824;SDS011;51060;42.640;24.356;2023-03-08T05:31:13;125.30;;;76.80;;
32824;SDS011;51060;42.640;24.356;2023-03-08T05:33:43;119.50;;;76.63;;
32824;SDS011;51060;42.640;24.356;2023-03-08T05:36:10;122.60;;;78.60;;
32824;SDS011;51060;42.640;24.356;2023-03-08T05:38:36;95.20;;;61.87;;
32824;SDS011;51060;42.640;24.356;2023-03-08T05:41:03;99.33;;;62.30;;
32824;SDS011;51060;42.640;24.356;2023-03-08T05:43:30;99.07;;;65.70;;
32824;SDS011;51060;42.640;24.356;2023-03-08T05:45:57;118.50;;;76.07;;
32824;SDS011;51060;42.640;24.356;2023-03-08T05:48:26;120.30;;;78.57;;
32824;SDS011;51060;42.640;24.356;2023-03-08T05:50:52;116.23;;;80.60;;
32824;SDS011;51060;42.640;24.356;2023-03-08T05:53:17;119.50;;;82.50;;
32824;SDS011;51060;42.640;24.356;2023-03-08T05:55:43;114.27;;;79.80;;
32824;SDS011;51060;42.640;24.356;2023-03-08T05:58:09;126.27;;;91.07;;
32824;SDS011;51060;42.640;24.356;2023-03-08T06:00:34;175.47;;;112.80;;
32824;SDS011;51060;42.640;24.356;2023-03-08T06:03:00;191.17;;;116.53;;
32824;SDS011;51060;42.640;24.356;2023-03-08T06:05:29;186.67;;;116.87;;
32824;SDS011;51060;42.640;24.356;2023-03-08T06:07:55;194.03;;;122.30;;
32824;SDS011;51060;42.640;24.356;2023-03-08T06:10:24;126.17;;;82.00;;
32824;SDS011;51060;42.640;24.356;2023-03-08T06:12:50;111.83;;;77.13;;
32824;SDS011;51060;42.640;24.356;2023-03-08T06:15:15;102.00;;;66.53;;
32824;SDS011;51060;42.640;24.356;2023-03-08T06:17:41;78.63;;;54.30;;
32824;SDS011;51060;42.640;24.356;2023-03-08T06:20:07;72.60;;;50.50;;
32824;SDS011;51060;42.640;24.356;2023-03-08T06:22:33;53.90;;;38.83;;
32824;SDS011;51060;42.640;24.356;2023-03-08T06:24:59;55.23;;;38.83;;
32824;SDS011;51060;42.640;24.356;2023-03-08T06:27:25;63.97;;;45.23;;
32824;SDS011;51060;42.640;24.356;2023-03-08T06:29:54;58.70;;;41.50;;
32824;SDS011;51060;42.640;24.356;2023-03-08T06:32:19;56.13;;;42.00;;
32824;SDS011;51060;42.640;24.356;2023-03-08T06:34:45;83.37;;;57.87;;
32824;SDS011;51060;42.640;24.356;2023-03-08T06:37:12;71.20;;;49.67;;
32824;SDS011;51060;42.640;24.356;2023-03-08T06:39:38;64.60;;;45.53;;
32824;SDS011;51060;42.640;24.356;2023-03-08T06:42:03;70.87;;;52.77;;
32824;SDS011;51060;42.640;24.356;2023-03-08T06:44:29;80.97;;;58.70;;
32824;SDS011;51060;42.640;24.356;2023-03-08T06:46:55;72.40;;;54.73;;
32824;SDS011;51060;42.640;24.356;2023-03-08T06:49:21;75.90;;;58.27;;
32824;SDS011;51060;42.640;24.356;2023-03-08T06:51:47;86.50;;;65.73;;
32824;SDS011;51060;42.640;24.356;2023-03-08T06:54:12;116.80;;;89.93;;
32824;SDS011;51060;42.640;24.356;2023-03-08T06:56:42;104.60;;;77.83;;
32824;SDS011;51060;42.640;24.356;2023-03-08T06:59:09;85.23;;;63.53;;
32824;SDS011;51060;42.640;24.356;2023-03-08T07:01:35;80.50;;;60.77;;
32824;SDS011;51060;42.640;24.356;2023-03-08T07:04:01;77.70;;;58.60;;
32824;SDS011;51060;42.640;24.356;2023-03-08T07:06:27;73.53;;;53.93;;
32824;SDS011;51060;42.640;24.356;2023-03-08T07:08:52;79.50;;;59.93;;
32824;SDS011;51060;42.640;24.356;2023-03-08T07:11:18;98.57;;;74.07;;
32824;SDS011;51060;42.640;24.356;2023-03-08T07:13:43;102.43;;;78.90;;
32824;SDS011;51060;42.640;24.356;2023-03-08T07:16:10;68.27;;;52.77;;
32824;SDS011;51060;42.640;24.356;2023-03-08T07:18:37;89.97;;;62.27;;
32824;SDS011;51060;42.640;24.356;2023-03-08T07:21:03;50.23;;;34.97;;
32824;SDS011;51060;42.640;24.356;2023-03-08T07:23:29;6.90;;;5.20;;
32824;SDS011;51060;42.640;24.356;2023-03-08T07:25:54;35.17;;;18.83;;
32824;SDS011;51060;42.640;24.356;2023-03-08T07:28:20;63.30;;;36.33;;
32824;SDS011;51060;42.640;24.356;2023-03-08T07:30:46;93.53;;;47.50;;
32824;SDS011;51060;42.640;24.356;2023-03-08T07:33:13;7.70;;;4.87;;
32824;SDS011;51060;42.640;24.356;2023-03-08T07:35:39;8.43;;;5.60;;
32824;SDS011;51060;42.640;24.356;2023-03-08T07:38:04;9.17;;;5.23;;
32824;SDS011;51060;42.640;24.356;2023-03-08T07:40:30;3.33;;;1.90;;
32824;SDS011;51060;42.640;24.356;2023-03-08T07:42:55;2.60;;;2.13;;
32824;SDS011;51060;42.640;24.356;2023-03-08T07:45:21;4.10;;;2.40;;
32824;SDS011;51060;42.640;24.356;2023-03-08T07:47:50;4.53;;;3.10;;
32824;SDS011;51060;42.640;24.356;2023-03-08T07:50:21;2.80;;;2.00;;
32824;SDS011;51060;42.640;24.356;2023-03-08T07:52:49;2.67;;;2.00;;
32824;SDS011;51060;42.640;24.356;2023-03-08T07:55:15;3.17;;;2.40;;
32824;SDS011;51060;42.640;24.356;2023-03-08T07:57:40;2.60;;;2.20;;
32824;SDS011;51060;42.640;24.356;2023-03-08T08:00:06;5.37;;;3.93;;
32824;SDS011;51060;42.640;24.356;2023-03-08T08:02:35;3.43;;;2.60;;
32824;SDS011;51060;42.640;24.356;2023-03-08T08:05:02;2.80;;;2.10;;
32824;SDS011;51060;42.640;24.356;2023-03-08T08:07:28;3.97;;;2.70;;
32824;SDS011;51060;42.640;24.356;2023-03-08T08:09:54;2.70;;;1.73;;
32824;SDS011;51060;42.640;24.356;2023-03-08T08:12:22;5.00;;;1.70;;
32824;SDS011;51060;42.640;24.356;2023-03-08T08:14:51;3.93;;;1.90;;
32824;SDS011;51060;42.640;24.356;2023-03-08T08:17:20;2.27;;;1.40;;
32824;SDS011;51060;42.640;24.356;2023-03-08T08:19:46;3.23;;;2.00;;
32824;SDS011;51060;42.640;24.356;2023-03-08T08:22:12;1.97;;;1.47;;
32824;SDS011;51060;42.640;24.356;2023-03-08T08:24:41;1.50;;;1.40;;
32824;SDS011;51060;42.640;24.356;2023-03-08T08:27:07;1.53;;;1.20;;
32824;SDS011;51060;42.640;24.356;2023-03-08T08:29:32;5.17;;;3.50;;
32824;SDS011;51060;42.640;24.356;2023-03-08T08:31:58;3.23;;;2.10;;
32824;SDS011;51060;42.640;24.356;2023-03-08T08:34:23;2.37;;;2.17;;
32824;SDS011;51060;42.640;24.356;2023-03-08T08:36:52;2.00;;;1.40;;
32824;SDS011;51060;42.640;24.356;2023-03-08T08:39:20;2.50;;;1.30;;
32824;SDS011;51060;42.640;24.356;2023-03-08T08:41:47;3.37;;;2.33;;
32824;SDS011;51060;42.640;24.356;2023-03-08T08:44:16;2.20;;;1.90;;
32824;SDS011;51060;42.640;24.356;2023-03-08T08:46:42;0.80;;;0.80;;
32824;SDS011;51060;42.640;24.356;2023-03-08T08:49:08;1.20;;;0.90;;
32824;SDS011;51060;42.640;24.356;2023-03-08T08:51:34;1.63;;;1.03;;
32824;SDS011;51060;42.640;24.356;2023-03-08T08:53:59;1.60;;;1.30;;
32824;SDS011;51060;42.640;24.356;2023-03-08T08:56:26;1.90;;;1.10;;
32824;SDS011;51060;42.640;24.356;2023-03-08T08:58:54;1.37;;;1.00;;
32824;SDS011;51060;42.640;24.356;2023-03-08T09:01:21;1.73;;;1.03;;
32824;SDS011;51060;42.640;24.356;2023-03-08T09:03:50;2.40;;;2.07;;
32824;SDS011;51060;42.640;24.356;2023-03-08T09:06:17;1.77;;;1.27;;
32824;SDS011;51060;42.640;24.356;2023-03-08T09:08:51;1.30;;;0.90;;
32824;SDS011;51060;42.640;24.356;2023-03-08T09:11:19;2.83;;;1.43;;
32824;SDS011;51060;42.640;24.356;2023-03-08T09:13:45;2.90;;;1.83;;
32824;SDS011;51060;42.640;24.356;2023-03-08T09:16:20;2.33;;;1.80;;
32824;SDS011;51060;42.640;24.356;2023-03-08T09:18:47;1.43;;;1.23;;
32824;SDS011;51060;42.640;24.356;2023-03-08T09:21:13;1.40;;;1.30;;
32824;SDS011;51060;42.640;24.356;2023-03-08T09:23:39;2.53;;;1.33;;
32824;SDS011;51060;42.640;24.356;2023-03-08T09:26:04;3.47;;;2.07;;
32824;SDS011;51060;42.640;24.356;2023-03-08T09:28:30;3.93;;;1.90;;
32824;SDS011;51060;42.640;24.356;2023-03-08T09:30:56;2.23;;;1.80;;
32824;SDS011;51060;42.640;24.356;2023-03-08T09:33:22;3.00;;;2.53;;
32824;SDS011;51060;42.640;24.356;2023-03-08T09:35:57;4.83;;;1.50;;
32824;SDS011;51060;42.640;24.356;2023-03-08T09:38:23;1.27;;;1.17;;
32824;SDS011;51060;42.640;24.356;2023-03-08T09:40:58;1.10;;;0.80;;
32824;SDS011;51060;42.640;24.356;2023-03-08T09:46:27;1.60;;;0.83;;
32824;SDS011;51060;42.640;24.356;2023-03-08T09:48:56;2.03;;;1.27;;
32824;SDS011;51060;42.640;24.356;2023-03-08T09:51:25;2.30;;;0.90;;
32824;SDS011;51060;42.640;24.356;2023-03-08T09:53:58;1.20;;;0.90;;
32824;SDS011;51060;42.640;24.356;2023-03-08T09:56:36;8.77;;;2.17;;
32824;SDS011;51060;42.640;24.356;2023-03-08T09:59:10;2.37;;;1.60;;
32824;SDS011;51060;42.640;24.356;2023-03-08T10:04:45;5.30;;;4.13;;
32824;SDS011;51060;42.640;24.356;2023-03-08T10:15:14;3.03;;;1.93;;
32824;SDS011;51060;42.640;24.356;2023-03-08T10:17:45;2.47;;;1.50;;
32824;SDS011;51060;42.640;24.356;2023-03-08T10:20:26;4.50;;;2.17;;
32824;SDS011;51060;42.640;24.356;2023-03-08T10:22:58;1.70;;;1.27;;
32824;SDS011;51060;42.640;24.356;2023-03-08T10:25:32;2.80;;;1.70;;
32824;SDS011;51060;42.640;24.356;2023-03-08T10:27:59;1.63;;;1.20;;
32824;SDS011;51060;42.640;24.356;2023-03-08T10:30:33;1.60;;;1.00;;
32824;SDS011;51060;42.640;24.356;2023-03-08T10:33:02;1.10;;;0.90;;
32824;SDS011;51060;42.640;24.356;2023-03-08T10:38:02;0.80;;;0.70;;
32824;SDS011;51060;42.640;24.356;2023-03-08T10:40:28;1.00;;;0.47;;
32824;SDS011;51060;42.640;24.356;2023-03-08T10:42:55;2.13;;;0.90;;
32824;SDS011;51060;42.640;24.356;2023-03-08T10:45:25;0.70;;;0.70;;
32824;SDS011;51060;42.640;24.356;2023-03-08T10:48:00;0.80;;;0.80;;
32824;SDS011;51060;42.640;24.356;2023-03-08T10:50:31;1.93;;;0.97;;
32824;SDS011;51060;42.640;24.356;2023-03-08T10:53:09;1.33;;;0.95;;
32824;SDS011;51060;42.640;24.356;2023-03-08T10:55:44;1.02;;;0.90;;
32824;SDS011;51060;42.640;24.356;2023-03-08T10:58:27;1.08;;;0.80;;
32824;SDS011;51060;42.640;24.356;2023-03-08T11:01:02;1.87;;;1.20;;
32824;SDS011;51060;42.640;24.356;2023-03-08T11:03:30;0.80;;;0.80;;
32824;SDS011;51060;42.640;24.356;2023-03-08T11:05:57;0.90;;;0.80;;
32824;SDS011;51060;42.640;24.356;2023-03-08T11:08:31;1.77;;;1.00;;
32824;SDS011;51060;42.640;24.356;2023-03-08T11:11:00;4.63;;;3.90;;
32824;SDS011;51060;42.640;24.356;2023-03-08T11:13:29;1.23;;;1.13;;
32824;SDS011;51060;42.640;24.356;2023-03-08T11:24:02;2.58;;;2.35;;
32824;SDS011;51060;42.640;24.356;2023-03-08T11:35:10;1.20;;;0.73;;
32824;SDS011;51060;42.640;24.356;2023-03-08T11:37:41;0.70;;;0.70;;
32824;SDS011;51060;42.640;24.356;2023-03-08T11:42:42;4.77;;;1.50;;
32824;SDS011;51060;42.640;24.356;2023-03-08T11:45:46;2.57;;;1.50;;
32824;SDS011;51060;42.640;24.356;2023-03-08T11:48:36;1.43;;;1.00;;
32824;SDS011;51060;42.640;24.356;2023-03-08T11:51:21;2.67;;;2.37;;
32824;SDS011;51060;42.640;24.356;2023-03-08T11:53:57;1.10;;;1.00;;
32824;SDS011;51060;42.640;24.356;2023-03-08T11:56:38;2.70;;;2.50;;
32824;SDS011;51060;42.640;24.356;2023-03-08T11:59:20;2.30;;;1.80;;
32824;SDS011;51060;42.640;24.356;2023-03-08T12:01:55;1.23;;;0.90;;
32824;SDS011;51060;42.640;24.356;2023-03-08T12:04:56;2.40;;;2.20;;
32824;SDS011;51060;42.640;24.356;2023-03-08T12:13:01;4.33;;;1.13;;
32824;SDS011;51060;42.640;24.356;2023-03-08T12:15:37;2.27;;;2.00;;
32824;SDS011;51060;42.640;24.356;2023-03-08T12:18:07;0.90;;;0.70;;
32824;SDS011;51060;42.640;24.356;2023-03-08T12:20:38;4.13;;;2.63;;
32824;SDS011;51060;42.640;24.356;2023-03-08T12:23:17;1.23;;;0.77;;
32824;SDS011;51060;42.640;24.356;2023-03-08T12:26:03;6.80;;;5.63;;
32824;SDS011;51060;42.640;24.356;2023-03-08T12:28:42;1.23;;;0.80;;
32824;SDS011;51060;42.640;24.356;2023-03-08T12:31:35;1.33;;;0.90;;
32824;SDS011;51060;42.640;24.356;2023-03-08T12:34:10;0.83;;;0.53;;
32824;SDS011;51060;42.640;24.356;2023-03-08T12:36:40;1.47;;;0.87;;
32824;SDS011;51060;42.640;24.356;2023-03-08T12:39:08;4.10;;;3.30;;
32824;SDS011;51060;42.640;24.356;2023-03-08T12:41:55;9.50;;;6.73;;
32824;SDS011;51060;42.640;24.356;2023-03-08T12:44:27;2.45;;;2.08;;
32824;SDS011;51060;42.640;24.356;2023-03-08T12:46:58;0.73;;;0.63;;
32824;SDS011;51060;42.640;24.356;2023-03-08T12:51:58;2.10;;;1.90;;
32824;SDS011;51060;42.640;24.356;2023-03-08T12:54:27;8.43;;;7.03;;
32824;SDS011;51060;42.640;24.356;2023-03-08T12:56:55;7.95;;;6.00;;
32824;SDS011;51060;42.640;24.356;2023-03-08T12:59:24;1.57;;;1.47;;
32824;SDS011;51060;42.640;24.356;2023-03-08T13:09:43;5.40;;;2.97;;
32824;SDS011;51060;42.640;24.356;2023-03-08T13:17:31;2.00;;;1.60;;
32824;SDS011;51060;42.640;24.356;2023-03-08T13:20:13;9.32;;;6.63;;
32824;SDS011;51060;42.640;24.356;2023-03-08T13:28:18;5.18;;;3.28;;
32824;SDS011;51060;42.640;24.356;2023-03-08T13:31:10;11.20;;;6.72;;
32824;SDS011;51060;42.640;24.356;2023-03-08T13:33:42;6.28;;;3.83;;
32824;SDS011;51060;42.640;24.356;2023-03-08T13:41:29;1.63;;;1.02;;
32824;SDS011;51060;42.640;24.356;2023-03-08T13:44:02;2.92;;;1.70;;
32824;SDS011;51060;42.640;24.356;2023-03-08T13:46:36;4.55;;;2.55;;
32824;SDS011;51060;42.640;24.356;2023-03-08T13:49:16;2.63;;;2.08;;
32824;SDS011;51060;42.640;24.356;2023-03-08T13:51:45;2.45;;;1.80;;
32824;SDS011;51060;42.640;24.356;2023-03-08T13:54:18;2.75;;;2.30;;
32824;SDS011;51060;42.640;24.356;2023-03-08T13:56:57;3.47;;;3.17;;
32824;SDS011;51060;42.640;24.356;2023-03-08T13:59:24;17.08;;;15.32;;
32824;SDS011;51060;42.640;24.356;2023-03-08T14:01:50;2.78;;;2.25;;
32824;SDS011;51060;42.640;24.356;2023-03-08T14:04:20;4.93;;;4.28;;
32824;SDS011;51060;42.640;24.356;2023-03-08T14:06:49;7.43;;;6.65;;
32824;SDS011;51060;42.640;24.356;2023-03-08T14:09:25;2.42;;;1.95;;
32824;SDS011;51060;42.640;24.356;2023-03-08T14:11:52;3.17;;;2.10;;
32824;SDS011;51060;42.640;24.356;2023-03-08T14:14:28;2.17;;;1.65;;
32824;SDS011;51060;42.640;24.356;2023-03-08T14:16:56;3.50;;;2.92;;
32824;SDS011;51060;42.640;24.356;2023-03-08T14:19:26;6.60;;;4.30;;
32824;SDS011;51060;42.640;24.356;2023-03-08T14:21:54;6.07;;;4.10;;
32824;SDS011;51060;42.640;24.356;2023-03-08T14:24:23;2.13;;;1.60;;
32824;SDS011;51060;42.640;24.356;2023-03-08T14:29:39;5.47;;;4.97;;
32824;SDS011;51060;42.640;24.356;2023-03-08T14:34:41;6.10;;;4.17;;
32824;SDS011;51060;42.640;24.356;2023-03-08T14:39:42;1.93;;;1.73;;
32824;SDS011;51060;42.640;24.356;2023-03-08T14:42:14;2.17;;;1.67;;
32824;SDS011;51060;42.640;24.356;2023-03-08T14:44:42;5.20;;;3.70;;
32824;SDS011;51060;42.640;24.356;2023-03-08T14:47:20;10.77;;;6.83;;
32824;SDS011;51060;42.640;24.356;2023-03-08T14:50:14;8.13;;;5.27;;
32824;SDS011;51060;42.640;24.356;2023-03-08T14:52:43;6.97;;;4.70;;
32824;SDS011;51060;42.640;24.356;2023-03-08T14:55:20;7.53;;;5.20;;
32824;SDS011;51060;42.640;24.356;2023-03-08T14:57:55;2.70;;;2.40;;
32824;SDS011;51060;42.640;24.356;2023-03-08T15:00:23;7.10;;;5.30;;
32824;SDS011;51060;42.640;24.356;2023-03-08T15:02:51;9.03;;;7.60;;
32824;SDS011;51060;42.640;24.356;2023-03-08T15:05:18;6.30;;;5.47;;
32824;SDS011;51060;42.640;24.356;2023-03-08T15:07:45;4.97;;;4.23;;
32824;SDS011;51060;42.640;24.356;2023-03-08T15:10:23;4.10;;;3.60;;
32824;SDS011;51060;42.640;24.356;2023-03-08T15:12:50;3.73;;;2.60;;
32824;SDS011;51060;42.640;24.356;2023-03-08T15:15:16;2.13;;;1.83;;
32824;SDS011;51060;42.640;24.356;2023-03-08T15:17:42;2.67;;;2.13;;
32824;SDS011;51060;42.640;24.356;2023-03-08T15:20:08;6.60;;;5.97;;
32824;SDS011;51060;42.640;24.356;2023-03-08T15:22:39;5.47;;;4.00;;
32824;SDS011;51060;42.640;24.356;2023-03-08T15:25:41;5.33;;;4.43;;
32824;SDS011;51060;42.640;24.356;2023-03-08T15:28:03;5.23;;;4.20;;
32824;SDS011;51060;42.640;24.356;2023-03-08T15:30:30;18.37;;;13.87;;
32824;SDS011;51060;42.640;24.356;2023-03-08T15:32:56;8.57;;;5.33;;
32824;SDS011;51060;42.640;24.356;2023-03-08T15:35:22;6.53;;;5.87;;
32824;SDS011;51060;42.640;24.356;2023-03-08T15:37:49;4.47;;;3.30;;
32824;SDS011;51060;42.640;24.356;2023-03-08T15:40:16;4.23;;;2.60;;
32824;SDS011;51060;42.640;24.356;2023-03-08T15:42:43;5.73;;;3.40;;